sensor_id;sensor_type;location;lat;lon;timestamp;pressure;altitude;pressure_sealevel;temperature;humidity
77824;BME280;67015;46.242;6.028;2023-03-14T00:28:51;95720.0;;;7.93;98.48
77824;BME280;67015;46.242;6.028;2023-03-14T00:58:53;95751.0;;;8.02;97.82
77824;BME280;67015;46.242;6.028;2023-03-14T01:28:51;95696.0;;;7.95;98.79
77824;BME280;67015;46.242;6.028;2023-03-14T01:58:50;95641.0;;;7.9;98.52
77824;BME280;67015;46.242;6.028;2023-03-14T02:28:50;95599.0;;;8.09;96.52
77824;BME280;67015;46.242;6.028;2023-03-14T02:58:50;95563.0;;;8.13;96.23
77824;BME280;67015;46.242;6.028;2023-03-14T03:28:50;95516.0;;;8.11;94.49
77824;BME280;67015;46.242;6.028;2023-03-14T04:28:50;95493.0;;;8.12;91.13
77824;BME280;67015;46.242;6.028;2023-03-14T04:28:50;95451.0;;;7.85;92.07
77824;BME280;67015;46.242;6.028;2023-03-14T04:58:50;95378.0;;;7.8;91.61
77824;BME280;67015;46.242;6.028;2023-03-14T05:28:50;95390.0;;;7.61;90.76
77824;BME280;67015;46.242;6.028;2023-03-14T05:58:50;95393.0;;;7.26;93.43
77824;BME280;67015;46.242;6.028;2023-03-14T06:28:50;95430.0;;;6.9;94.5
77824;BME280;67015;46.242;6.028;2023-03-14T06:58:50;95474.0;;;6.64;95.64
77824;BME280;67015;46.242;6.028;2023-03-14T07:28:50;95492.0;;;6.47;94.82
77824;BME280;67015;46.242;6.028;2023-03-14T07:58:50;95517.0;;;6.5;96.85
77824;BME280;67015;46.242;6.028;2023-03-14T08:28:50;95551.0;;;6.67;98.69
77824;BME280;67015;46.242;6.028;2023-03-14T08:58:50;95584.0;;;6.57;99.4
77824;BME280;67015;46.242;6.028;2023-03-14T09:28:50;95672.0;;;6.59;99.76
77824;BME280;67015;46.242;6.028;2023-03-14T09:58:51;95751.0;;;6.89;100.0
77824;BME280;67015;46.242;6.028;2023-03-14T10:28:50;95802.0;;;7.75;74.47
77824;BME280;67015;46.242;6.028;2023-03-14T10:58:50;95915.0;;;8.31;74.55
77824;BME280;67015;46.242;6.028;2023-03-14T11:28:50;95998.0;;;8.63;67.06
77824;BME280;67015;46.242;6.028;2023-03-14T11:58:52;96033.0;;;8.67;69.54
77824;BME280;67015;46.242;6.028;2023-03-14T12:28:50;96022.0;;;8.63;82.22
77824;BME280;67015;46.242;6.028;2023-03-14T12:58:54;96025.0;;;9.09;72.18
77824;BME280;67015;46.242;6.028;2023-03-14T13:28:49;96052.0;;;7.88;84.81
77824;BME280;67015;46.242;6.028;2023-03-14T14:28:57;96076.0;;;8.42;76.54
77824;BME280;67015;46.242;6.028;2023-03-14T14:58:49;96111.0;;;7.54;76.19
77824;BME280;67015;46.242;6.028;2023-03-14T15:28:49;96093.0;;;7.87;67.48
77824;BME280;67015;46.242;6.028;2023-03-14T15:58:49;96121.0;;;8.6;66.52
77824;BME280;67015;46.242;6.028;2023-03-14T16:28:49;96171.0;;;8.33;63.13
77824;BME280;67015;46.242;6.028;2023-03-14T16:58:49;96190.0;;;7.53;64.8
77824;BME280;67015;46.242;6.028;2023-03-14T17:28:49;96271.0;;;6.98;64.63
77824;BME280;67015;46.242;6.028;2023-03-14T17:58:49;96305.0;;;6.66;71.46
77824;BME280;67015;46.242;6.028;2023-03-14T18:28:50;96350.0;;;6.43;72.18
77824;BME280;67015;46.242;6.028;2023-03-14T18:58:49;96389.0;;;5.85;78.33
77824;BME280;67015;46.242;6.028;2023-03-14T19:28:49;96414.0;;;5.82;79.8
77824;BME280;67015;46.242;6.028;2023-03-14T19:58:49;96445.0;;;5.29;80.46
77824;BME280;67015;46.242;6.028;2023-03-14T20:28:49;96478.0;;;4.59;85.34
77824;BME280;67015;46.242;6.028;2023-03-14T20:58:49;96493.0;;;4.88;81.01
77824;BME280;67015;46.242;6.028;2023-03-14T21:28:49;96501.0;;;5.63;79.01
77824;BME280;67015;46.242;6.028;2023-03-14T21:58:48;96529.0;;;5.29;83.75
77824;BME280;67015;46.242;6.028;2023-03-14T22:28:49;96532.0;;;5.08;85.25
77824;BME280;67015;46.242;6.028;2023-03-14T22:58:49;96600.0;;;4.42;92.39
77824;BME280;67015;46.242;6.028;2023-03-14T23:28:49;96607.0;;;4.12;91.25
77824;BME280;67015;46.242;6.028;2023-03-14T23:58:49;96608.0;;;4.05;83.37
